Time;durP1;ratioP1;P1;durP2;ratioP2;P2;SDS_P1;SDS_P2;PMS_P1;PMS_P2;Temp;Humidity;BMP_temperature;BMP_pressure;BME280_temperature;BME280_humidity;BME280_pressure;Samples;Min_cycle;Max_cycle;Signal;HPM_P1;HPM_P2
2023/10/17 00:01:47;;;;;;;4.63;2.97;;;;;;;8.95;55.18;95660.59;5025309;28;20261;-68
2023/10/17 00:06:45;;;;;;;7.43;3.23;;;;;;;8.96;55.77;95661.38;5039482;28;20296;-68
2023/10/17 00:09:10;;;;;;;8.87;3.10;;;;;;;9.09;55.73;95659.88;5024466;28;20284;-68
2023/10/17 00:12:25;;;;;;;4.40;3.00;;;;;;;8.75;56.42;95654.97;5022807;28;20234;-68
2023/10/17 00:14:27;;;;;;;5.33;3.33;;;;;;;8.94;55.74;95645.91;5016813;28;20237;-68
2023/10/17 00:16:54;;;;;;;6.77;3.50;;;;;;;8.96;54.90;95643.13;5007622;28;20287;-69
2023/10/17 00:19:26;;;;;;;4.70;3.20;;;;;;;8.95;55.72;95639.72;4998829;28;20233;-70
2023/10/17 00:21:54;;;;;;;6.43;3.30;;;;;;;8.68;57.06;95646.19;4994309;28;20933;-69
2023/10/17 00:24:19;;;;;;;7.40;3.63;;;;;;;8.89;57.51;95639.56;5008031;28;20248;-67
2023/10/17 00:26:47;;;;;;;10.03;3.80;;;;;;;8.75;57.46;95636.72;5029355;28;20313;-69
2023/10/17 00:29:13;;;;;;;7.43;3.80;;;;;;;8.51;57.84;95636.00;5009281;28;20233;-68
2023/10/17 00:31:38;;;;;;;7.10;3.70;;;;;;;8.50;58.24;95637.78;5010377;28;20238;-69
2023/10/17 00:34:13;;;;;;;7.70;3.57;;;;;;;8.43;59.48;95633.44;5027780;28;20237;-69
2023/10/17 00:36:48;;;;;;;8.87;3.70;;;;;;;8.68;58.50;95627.94;5000028;28;20225;-69
2023/10/17 00:39:29;;;;;;;5.70;3.60;;;;;;;8.59;58.82;95630.75;5028505;28;20233;-69
2023/10/17 00:44:33;;;;;;;7.10;3.60;;;;;;;8.22;60.85;95620.91;5009745;28;20237;-69
2023/10/17 00:47:02;;;;;;;8.53;3.37;;;;;;;8.32;60.85;95616.34;5021063;28;20233;-70
2023/10/17 00:49:33;;;;;;;5.97;3.43;;;;;;;7.95;61.25;95622.09;5009628;28;20238;-68
2023/10/17 00:52:00;;;;;;;6.27;3.33;;;;;;;8.02;61.19;95619.66;5011093;28;20241;-69
2023/10/17 00:54:26;;;;;;;7.23;3.73;;;;;;;7.93;62.00;95615.41;5009930;28;20339;-69
2023/10/17 00:56:56;;;;;;;8.37;3.90;;;;;;;8.21;61.65;95610.66;5024618;28;20330;-69
2023/10/17 00:59:27;;;;;;;7.10;3.80;;;;;;;8.13;62.00;95620.13;5024373;28;20233;-70
2023/10/17 01:01:55;;;;;;;6.20;3.63;;;;;;;8.01;62.39;95625.84;4995813;28;20242;-66
2023/10/17 01:04:23;;;;;;;8.70;3.53;;;;;;;7.90;62.68;95618.38;5013224;28;20236;-71
2023/10/17 01:06:54;;;;;;;5.33;3.30;;;;;;;8.05;62.13;95622.72;5027622;28;20813;-69
2023/10/17 01:09:27;;;;;;;5.37;3.40;;;;;;;8.25;61.58;95622.34;5012384;28;20730;-69
2023/10/17 01:11:56;;;;;;;7.93;3.63;;;;;;;8.24;62.11;95621.53;5026974;28;20226;-69
2023/10/17 01:14:23;;;;;;;8.30;3.43;;;;;;;8.15;61.18;95615.53;5028969;28;20264;-79
2023/10/17 01:16:52;;;;;;;9.67;3.90;;;;;;;7.96;62.96;95618.53;5024157;28;21098;-79
2023/10/17 01:19:21;;;;;;;7.90;3.67;;;;;;;7.86;63.20;95620.50;5012970;28;20836;-79
2023/10/17 01:21:50;;;;;;;7.00;3.70;;;;;;;7.67;63.41;95626.06;5011475;28;20241;-78
2023/10/17 01:24:16;;;;;;;8.30;3.60;;;;;;;7.87;63.72;95629.94;4997336;28;20779;-80
2023/10/17 01:26:46;;;;;;;7.60;3.63;;;;;;;7.97;63.19;95633.19;5009328;28;20292;-79
2023/10/17 01:29:12;;;;;;;6.93;3.77;;;;;;;7.93;63.17;95633.66;5012216;28;20257;-79
2023/10/17 01:31:44;;;;;;;7.40;4.23;;;;;;;8.07;63.06;95627.81;5009206;28;21148;-79
2023/10/17 01:34:11;;;;;;;11.17;4.97;;;;;;;7.61;65.12;95636.31;5025506;28;20345;-79
2023/10/17 01:36:37;;;;;;;9.63;5.40;;;;;;;7.55;64.51;95629.19;5024181;28;20623;-78
2023/10/17 01:39:06;;;;;;;9.70;5.37;;;;;;;7.64;64.74;95617.78;4988784;28;20229;-79
2023/10/17 01:41:32;;;;;;;9.43;5.33;;;;;;;7.62;65.58;95622.34;5007935;28;20256;-79
2023/10/17 01:43:57;;;;;;;9.93;4.57;;;;;;;7.71;65.23;95622.16;4995631;28;20234;-79
2023/10/17 01:46:23;;;;;;;9.13;4.37;;;;;;;7.62;66.26;95619.72;5029941;28;20845;-80
2023/10/17 01:48:53;;;;;;;7.53;4.60;;;;;;;7.65;66.31;95625.41;5013477;28;20972;-81
2023/10/17 01:51:19;;;;;;;9.20;4.50;;;;;;;7.68;65.67;95624.28;5036922;28;20252;-79
2023/10/17 01:53:50;;;;;;;10.17;4.53;;;;;;;7.66;66.53;95628.84;5008768;28;20222;-79
2023/10/17 01:56:16;;;;;;;7.57;4.30;;;;;;;7.59;66.03;95630.47;5027172;28;20218;-79
2023/10/17 01:58:45;;;;;;;9.07;4.17;;;;;;;7.44;66.97;95638.13;5014680;28;20998;-79
2023/10/17 02:01:13;;;;;;;11.23;4.60;;;;;;;7.46;66.84;95630.94;5009784;28;20233;-69
2023/10/17 02:03:39;;;;;;;9.90;4.17;;;;;;;7.62;66.21;95630.16;5009491;28;20230;-68
2023/10/17 02:06:13;;;;;;;10.80;4.20;;;;;;;7.49;67.07;95628.03;5027494;28;20312;-70
2023/10/17 02:08:42;;;;;;;10.80;4.20;;;;;;;7.39;67.75;95622.97;4995952;28;20225;-69
2023/10/17 02:11:13;;;;;;;8.77;4.07;;;;;;;7.56;67.25;95615.97;5009571;28;20222;-69
2023/10/17 02:13:41;;;;;;;10.70;4.20;;;;;;;7.61;67.06;95616.31;5003629;28;20793;-69
2023/10/17 02:16:10;;;;;;;8.73;4.20;;;;;;;7.72;66.41;95615.94;5013285;28;20726;-68
2023/10/17 02:18:36;;;;;;;14.13;4.60;;;;;;;7.50;66.27;95615.81;5025300;28;20218;-68
2023/10/17 02:21:04;;;;;;;12.20;4.20;;;;;;;7.33;67.22;95613.19;5027791;28;20738;-69
2023/10/17 02:23:39;;;;;;;10.63;4.40;;;;;;;7.42;67.74;95607.03;5023383;28;20233;-68
2023/10/17 02:26:10;;;;;;;12.93;5.00;;;;;;;7.56;67.09;95613.38;5009919;28;20287;-68
2023/10/17 02:28:44;;;;;;;11.70;4.70;;;;;;;7.75;66.17;95609.59;5043522;28;20222;-78
2023/10/17 02:31:29;;;;;;;9.37;4.90;;;;;;;7.71;66.67;95603.94;5014864;28;20273;-80
2023/10/17 02:33:55;;;;;;;8.40;4.67;;;;;;;7.78;65.93;95612.72;5024639;28;20265;-80
2023/10/17 02:36:20;;;;;;;10.03;4.53;;;;;;;7.70;67.53;95611.88;4994874;28;20699;-79
2023/10/17 02:38:46;;;;;;;12.73;4.47;;;;;;;7.76;67.15;95603.44;5009699;28;20238;-79
2023/10/17 02:41:18;;;;;;;11.10;4.07;;;;;;;7.92;66.75;95603.38;5000147;28;20240;-78
2023/10/17 02:43:53;;;;;;;8.40;3.80;;;;;;;7.76;67.91;95606.81;5027081;28;20229;-79
2023/10/17 02:46:19;;;;;;;9.63;4.10;;;;;;;7.60;68.70;95613.84;4995589;28;20234;-79
2023/10/17 02:48:48;;;;;;;8.50;3.97;;;;;;;7.61;69.42;95611.09;5023790;28;20305;-79
2023/10/17 02:53:51;;;;;;;12.03;4.00;;;;;;;7.57;69.64;95604.56;5008500;28;20327;-80
2023/10/17 02:56:20;;;;;;;6.73;3.67;;;;;;;7.75;68.74;95607.81;5024468;28;20222;-69
2023/10/17 02:59:10;;;;;;;10.03;3.90;;;;;;;7.77;69.15;95605.03;5026357;28;20715;-69
2023/10/17 03:01:37;;;;;;;9.07;3.80;;;;;;;7.78;69.62;95612.72;5010328;28;20230;-69
2023/10/17 03:04:24;;;;;;;9.80;3.93;;;;;;;7.76;69.93;95606.81;4995135;28;20249;-68
2023/10/17 03:06:49;;;;;;;9.00;4.20;;;;;;;7.53;69.48;95618.91;5012560;28;20687;-68
2023/10/17 03:11:49;;;;;;;8.70;3.90;;;;;;;7.45;70.75;95621.53;5030830;28;20241;-70
2023/10/17 03:14:19;;;;;;;9.73;3.70;;;;;;;7.42;70.60;95621.84;5003076;28;20257;-69
2023/10/17 03:16:54;;;;;;;6.13;3.83;;;;;;;7.52;70.94;95619.06;5008195;28;20229;-68
2023/10/17 03:19:27;;;;;;;9.97;4.13;;;;;;;7.63;71.16;95623.94;5022589;28;20229;-69
2023/10/17 03:22:14;;;;;;;9.90;4.70;;;;;;;7.61;70.91;95613.69;5024477;28;20217;-68
2023/10/17 03:24:42;;;;;;;9.83;4.97;;;;;;;7.84;70.73;95599.00;5008623;28;20695;-69
2023/10/17 03:27:10;;;;;;;14.30;4.73;;;;;;;7.92;71.02;95604.22;5023681;28;20260;-68
2023/10/17 03:29:36;;;;;;;9.30;4.70;;;;;;;8.04;70.67;95618.53;5026170;28;20240;-69
2023/10/17 03:32:04;;;;;;;7.50;4.03;;;;;;;8.06;70.73;95611.34;5009843;28;20238;-69
2023/10/17 03:34:35;;;;;;;7.93;4.07;;;;;;;8.10;71.12;95598.78;5025643;28;20229;-68
2023/10/17 03:37:47;;;;;;;8.97;3.97;;;;;;;7.85;72.49;95602.44;4993558;28;21121;-79
2023/10/17 03:39:54;;;;;;;12.33;4.80;;;;;;;8.01;70.81;95612.81;5002566;28;20699;-78
2023/10/17 03:44:55;;;;;;;10.23;4.50;;;;;;;7.89;71.92;95606.31;5025718;28;20238;-79
2023/10/17 03:47:22;;;;;;;11.37;4.57;;;;;;;7.99;71.09;95605.16;4991909;28;20241;-76
2023/10/17 03:49:48;;;;;;;10.87;4.57;;;;;;;8.08;71.05;95605.94;5024929;28;20653;-80
2023/10/17 03:52:16;;;;;;;9.27;4.37;;;;;;;8.07;71.93;95602.53;5007696;28;20284;-79
2023/10/17 03:54:44;;;;;;;11.27;4.30;;;;;;;8.19;71.85;95603.00;5024130;28;20929;-79
2023/10/17 03:57:15;;;;;;;13.27;4.60;;;;;;;8.20;71.39;95601.19;5015374;28;20284;-79
2023/10/17 03:59:42;;;;;;;10.87;4.53;;;;;;;8.35;71.87;95600.34;5011071;28;20424;-81
2023/10/17 04:02:12;;;;;;;7.40;4.43;;;;;;;8.25;72.25;95593.66;5017576;28;20226;-78
2023/10/17 04:04:53;;;;;;;12.57;4.70;;;;;;;8.21;72.26;95601.03;4992186;28;20242;-80
2023/10/17 04:07:31;;;;;;;8.63;4.43;;;;;;;8.13;73.73;95601.88;5007384;28;20271;-79
2023/10/17 04:15:15;;;;;;;9.83;4.27;;;;;;;8.33;73.07;95607.53;5024936;28;20228;-80
2023/10/17 04:17:40;;;;;;;12.17;4.57;;;;;;;8.27;74.41;95604.78;5017616;28;20230;-79
2023/10/17 04:20:12;;;;;;;15.07;4.30;;;;;;;8.28;74.51;95606.41;5046625;28;20230;-80
2023/10/17 04:22:38;;;;;;;8.90;4.23;;;;;;;8.34;73.52;95597.91;5018659;28;20666;-79
2023/10/17 04:25:20;;;;;;;6.97;4.10;;;;;;;8.43;73.64;95600.31;5024412;28;21067;-80
2023/10/17 04:27:54;;;;;;;14.67;4.47;;;;;;;8.44;74.01;95598.53;5010339;28;20214;-79
2023/10/17 04:30:29;;;;;;;19.37;4.90;;;;;;;8.37;74.60;95598.41;4989319;28;20235;-78
2023/10/17 04:33:08;;;;;;;14.53;4.70;;;;;;;8.46;74.24;95597.38;5023844;28;20257;-79
2023/10/17 04:35:46;;;;;;;13.40;4.30;;;;;;;8.53;73.75;95600.94;5008127;28;20300;-81
2023/10/17 04:41:12;;;;;;;13.20;4.70;;;;;;;8.43;74.72;95594.31;5031320;28;20247;-80
2023/10/17 04:43:45;;;;;;;13.63;4.80;;;;;;;8.51;74.80;95596.84;5009917;28;20252;-80
2023/10/17 04:46:11;;;;;;;12.60;4.67;;;;;;;8.57;75.45;95598.81;5027231;28;20221;-80
2023/10/17 04:48:40;;;;;;;10.30;4.70;;;;;;;8.46;75.10;95599.97;5042800;28;20225;-79
2023/10/17 04:51:20;;;;;;;8.50;4.73;;;;;;;8.50;75.02;95593.44;5011064;28;20228;-80
2023/10/17 04:53:49;;;;;;;9.13;4.90;;;;;;;8.62;75.80;95604.31;5021546;28;20414;-80
2023/10/17 04:56:24;;;;;;;15.60;5.00;;;;;;;8.68;76.07;95606.25;5010993;28;20238;-80
2023/10/17 05:01:46;;;;;;;12.00;5.13;;;;;;;8.71;75.27;95600.69;5007915;28;20241;-80
2023/10/17 06:17:47;;;;;;;10.00;4.10;;;;;;;9.90;72.61;95643.56;5023198;28;20220;-84
2023/10/17 06:20:14;;;;;;;10.83;3.67;;;;;;;9.89;71.77;95649.78;4995039;28;20238;-82
2023/10/17 06:30:48;;;;;;;10.43;3.40;;;;;;;10.25;70.73;95642.09;5032551;28;20295;-79
2023/10/17 06:33:19;;;;;;;15.10;3.73;;;;;;;10.28;70.87;95647.81;5047685;28;20317;-79
2023/10/17 06:35:55;;;;;;;10.07;4.00;;;;;;;10.14;71.09;95648.59;5028437;28;20236;-78
2023/10/17 06:38:27;;;;;;;11.90;3.60;;;;;;;10.23;71.64;95646.72;5031155;28;20234;-78
2023/10/17 06:41:27;;;;;;;7.27;3.20;;;;;;;10.36;70.91;95652.97;5028349;28;20266;-80
2023/10/17 06:43:56;;;;;;;10.40;3.50;;;;;;;10.48;71.04;95635.81;5032178;28;20250;-78
2023/10/17 06:46:40;;;;;;;9.23;3.30;;;;;;;10.54;70.07;95640.31;5013102;28;20252;-79
2023/10/17 06:49:09;;;;;;;10.43;3.10;;;;;;;10.47;69.79;95644.66;5014116;28;20253;-80
2023/10/17 06:51:39;;;;;;;12.30;3.33;;;;;;;10.55;69.55;95641.97;5026932;28;20315;-79
2023/10/17 06:54:09;;;;;;;9.00;2.93;;;;;;;10.56;69.87;95642.75;4992045;28;20226;-79
2023/10/17 06:56:43;;;;;;;8.70;3.00;;;;;;;10.54;69.89;95629.84;5022865;28;20241;-70
2023/10/17 06:59:24;;;;;;;6.93;3.00;;;;;;;10.47;69.84;95636.81;5019078;28;20319;-70
2023/10/17 07:04:50;;;;;;;8.30;3.40;;;;;;;10.54;69.73;95634.28;4980037;28;20323;-70
2023/10/17 07:07:18;;;;;;;9.63;3.27;;;;;;;10.59;70.10;95632.75;5025937;28;20720;-69
2023/10/17 07:09:52;;;;;;;6.80;3.03;;;;;;;10.56;70.13;95632.28;4989670;28;20269;-68
2023/10/17 07:12:19;;;;;;;9.67;3.07;;;;;;;10.69;69.34;95633.28;5005987;28;20234;-69
2023/10/17 07:14:48;;;;;;;7.00;3.00;;;;;;;10.66;69.56;95619.72;5028822;28;20229;-69
2023/10/17 07:17:25;;;;;;;10.93;5.57;;;;;;;10.69;69.37;95622.81;5024370;28;20261;-69
2023/10/17 07:19:58;;;;;;;8.03;2.90;;;;;;;10.72;69.33;95619.81;5026185;28;20228;-69
2023/10/17 07:22:25;;;;;;;9.70;3.03;;;;;;;10.84;68.62;95610.47;5009536;28;20619;-70
2023/10/17 07:24:52;;;;;;;7.63;2.97;;;;;;;10.82;68.84;95617.72;5005921;28;20837;-69
2023/10/17 07:27:27;;;;;;;9.33;3.00;;;;;;;10.90;68.33;95614.19;5005310;28;20298;-70
2023/10/17 07:29:58;;;;;;;8.23;2.70;;;;;;;10.92;68.91;95612.19;5009790;28;20770;-68
2023/10/17 07:32:25;;;;;;;8.93;2.93;;;;;;;10.95;67.98;95608.38;5007746;28;20248;-69
2023/10/17 07:34:52;;;;;;;6.27;2.90;;;;;;;11.04;68.05;95602.03;4993995;28;20234;-69
2023/10/17 07:42:45;;;;;;;6.60;2.70;;;;;;;11.23;67.33;95604.03;4963215;28;20232;-69
2023/10/17 07:45:14;;;;;;;5.73;2.63;;;;;;;11.29;66.43;95603.31;5014946;28;20229;-69
2023/10/17 07:47:51;;;;;;;6.20;2.50;;;;;;;11.36;66.02;95598.94;5004546;28;20230;-69
2023/10/17 07:50:17;;;;;;;4.63;2.50;;;;;;;11.44;65.95;95598.81;5027739;28;20226;-70
2023/10/17 07:52:43;;;;;;;6.57;2.60;;;;;;;11.48;65.75;95607.94;5007561;28;20229;-70
2023/10/17 07:55:35;;;;;;;5.53;2.90;;;;;;;11.47;64.97;95601.06;5024904;28;20313;-69
2023/10/17 07:58:06;;;;;;;8.30;2.67;;;;;;;11.57;64.50;95591.06;5029640;28;20230;-70
2023/10/17 08:00:33;;;;;;;5.87;2.90;;;;;;;11.64;64.37;95597.19;5027791;28;20225;-69
2023/10/17 08:03:15;;;;;;;6.33;2.60;;;;;;;11.60;64.66;95605.63;5026310;28;20234;-69
2023/10/17 08:05:45;;;;;;;5.73;2.50;;;;;;;11.60;65.01;95595.94;5028710;28;20296;-69
2023/10/17 08:08:14;;;;;;;6.07;2.50;;;;;;;11.62;63.92;95599.19;5005966;28;20225;-69
2023/10/17 08:10:46;;;;;;;4.97;2.70;;;;;;;11.68;64.12;95595.81;5010799;28;20229;-69
2023/10/17 08:13:12;;;;;;;10.97;2.90;;;;;;;11.69;64.37;95594.00;5006984;28;20226;-68
2023/10/17 08:15:53;;;;;;;8.03;2.53;;;;;;;11.76;63.79;95597.50;5008118;28;20244;-69
2023/10/17 08:18:22;;;;;;;9.13;2.57;;;;;;;11.78;63.83;95590.25;5022088;28;20237;-69
2023/10/17 08:23:26;;;;;;;7.47;2.53;;;;;;;11.74;63.61;95589.00;5023623;28;20311;-70
2023/10/17 08:25:59;;;;;;;5.53;2.63;;;;;;;11.80;63.07;95591.69;5026572;28;20928;-69
2023/10/17 08:28:32;;;;;;;5.40;2.60;;;;;;;11.86;63.10;95592.75;5022480;28;20232;-70
2023/10/17 08:36:45;;;;;;;7.93;2.50;;;;;;;11.93;63.22;95588.34;5007315;28;20232;-70
2023/10/17 08:42:05;;;;;;;5.80;2.63;;;;;;;11.94;61.18;95572.41;5012740;28;20233;-69
2023/10/17 08:44:33;;;;;;;11.50;2.60;;;;;;;11.93;60.44;95578.69;4994301;28;20702;-69
2023/10/17 08:46:59;;;;;;;6.90;2.40;;;;;;;12.01;60.79;95578.50;5009823;28;20237;-69
2023/10/17 08:49:28;;;;;;;7.73;2.63;;;;;;;12.05;61.12;95585.03;5022577;28;20291;-69
2023/10/17 08:51:57;;;;;;;6.70;2.20;;;;;;;12.08;61.20;95595.09;5015438;28;20259;-69
2023/10/17 08:54:25;;;;;;;8.00;2.53;;;;;;;12.03;61.13;95597.53;5008835;28;20821;-69
2023/10/17 08:56:50;;;;;;;7.80;2.90;;;;;;;12.12;61.58;95595.56;4998310;28;20229;-69
2023/10/17 08:59:29;;;;;;;6.77;2.93;;;;;;;12.11;61.62;95592.09;5010924;28;20260;-69
2023/10/17 09:02:02;;;;;;;13.23;3.00;;;;;;;12.15;60.98;95590.75;4982367;28;20233;-69
2023/10/17 09:04:32;;;;;;;8.63;2.53;;;;;;;12.21;60.85;95589.13;5029332;28;20245;-70
2023/10/17 09:06:59;;;;;;;7.20;2.63;;;;;;;12.22;61.32;95584.72;5024075;28;20798;-68
2023/10/17 09:09:28;;;;;;;6.83;2.70;;;;;;;12.20;59.91;95581.47;5009441;28;20257;-72
2023/10/17 09:12:19;;;;;;;5.20;2.53;;;;;;;12.25;60.75;95579.91;5043974;28;20291;-69
2023/10/17 09:14:48;;;;;;;6.13;2.60;;;;;;;12.26;60.45;95580.69;5029638;28;20226;-70
2023/10/17 09:17:17;;;;;;;5.47;2.60;;;;;;;12.35;59.96;95574.28;5043976;28;20321;-70
2023/10/17 09:19:51;;;;;;;10.77;2.70;;;;;;;12.37;59.98;95562.56;5006602;28;20237;-70
2023/10/17 09:22:24;;;;;;;5.30;2.50;;;;;;;12.31;60.19;95557.28;5009063;28;20267;-69
2023/10/17 09:24:49;;;;;;;5.00;2.53;;;;;;;12.35;60.48;95554.09;5012109;28;20215;-69
2023/10/17 09:27:16;;;;;;;7.80;2.93;;;;;;;12.38;60.48;95553.69;5007893;28;20245;-69
2023/10/17 09:29:52;;;;;;;8.03;2.63;;;;;;;12.35;59.43;95554.09;4997270;28;20245;-69
2023/10/17 09:32:42;;;;;;;7.50;2.50;;;;;;;12.44;59.85;95547.66;5037787;28;20238;-69
2023/10/17 09:35:15;;;;;;;6.23;2.43;;;;;;;12.48;59.32;95545.47;5012964;28;20703;-70
2023/10/17 09:37:42;;;;;;;8.17;2.40;;;;;;;12.45;58.97;95540.59;5010461;28;20253;-69
2023/10/17 09:40:12;;;;;;;4.70;2.60;;;;;;;12.41;59.75;95537.56;5013398;28;20237;-70
2023/10/17 09:42:44;;;;;;;6.57;2.70;;;;;;;12.52;59.92;95526.50;4999992;28;20229;-69
2023/10/17 09:45:10;;;;;;;8.83;2.60;;;;;;;12.53;59.25;95535.19;5010564;28;20241;-69
2023/10/17 09:47:44;;;;;;;5.87;2.50;;;;;;;12.52;59.53;95533.56;5029107;28;20230;-69
2023/10/17 09:50:16;;;;;;;5.97;2.60;;;;;;;12.48;59.65;95533.16;5031406;28;20247;-69
2023/10/17 09:52:42;;;;;;;4.50;2.50;;;;;;;12.42;60.20;95522.63;5026971;28;20302;-70
2023/10/17 09:55:10;;;;;;;7.73;2.60;;;;;;;12.49;59.43;95513.75;4999585;28;20237;-69
2023/10/17 09:57:36;;;;;;;10.00;2.57;;;;;;;12.46;59.34;95516.78;5023015;28;20228;-69
2023/10/17 10:00:05;;;;;;;5.53;2.90;;;;;;;12.54;59.49;95515.78;5014384;28;20308;-69
2023/10/17 10:02:34;;;;;;;4.80;2.60;;;;;;;12.55;59.73;95520.03;5046396;28;20699;-69
2023/10/17 10:05:18;;;;;;;7.03;2.60;;;;;;;12.52;59.76;95523.06;5016729;28;20287;-69
2023/10/17 10:07:43;;;;;;;5.47;2.60;;;;;;;12.56;59.95;95519.84;5026412;28;20240;-69
2023/10/17 10:10:10;;;;;;;6.60;2.80;;;;;;;12.56;58.65;95511.16;5016009;28;20234;-70
2023/10/17 10:12:59;;;;;;;8.30;2.53;;;;;;;12.56;58.60;95503.28;5009934;28;20241;-69
2023/10/17 10:15:58;;;;;;;8.00;2.97;;;;;;;12.49;58.68;95505.88;5019425;28;20668;-69
2023/10/17 10:18:33;;;;;;;4.90;3.10;;;;;;;12.53;58.28;95504.50;5001964;28;20234;-69
2023/10/17 10:20:58;;;;;;;7.20;3.00;;;;;;;12.56;58.96;95513.81;5027279;28;20753;-69
2023/10/17 10:23:34;;;;;;;6.33;2.70;;;;;;;12.64;59.21;95498.66;5028644;28;20229;-69
2023/10/17 10:26:11;;;;;;;6.20;2.70;;;;;;;12.66;58.83;95501.91;4989634;28;20236;-69
2023/10/17 10:28:37;;;;;;;6.53;2.23;;;;;;;12.66;57.03;95501.09;5034674;28;20669;-69
2023/10/17 10:31:30;;;;;;;3.60;2.20;;;;;;;12.75;57.28;95497.28;5023846;28;20245;-69
2023/10/17 10:33:56;;;;;;;3.20;2.10;;;;;;;12.78;57.43;95487.19;5029310;28;20791;-68
2023/10/17 10:36:23;;;;;;;5.20;2.60;;;;;;;12.79;57.33;95506.38;5012687;28;20942;-71
2023/10/17 10:38:49;;;;;;;8.83;2.43;;;;;;;12.84;56.84;95491.66;5014853;28;20291;-69
2023/10/17 10:41:15;;;;;;;8.07;2.70;;;;;;;12.81;57.22;95499.94;5028234;28;20234;-70
2023/10/17 10:43:44;;;;;;;5.30;2.30;;;;;;;12.82;56.54;95498.91;5031406;28;20236;-70
2023/10/17 10:46:10;;;;;;;6.50;2.50;;;;;;;12.82;56.39;95495.50;5014480;28;20816;-69
2023/10/17 10:48:38;;;;;;;7.97;2.70;;;;;;;12.78;56.69;95495.06;5046296;28;20271;-69
2023/10/17 10:51:04;;;;;;;6.47;2.27;;;;;;;12.80;56.64;95490.41;5037126;28;20233;-69
2023/10/17 10:53:36;;;;;;;8.07;2.50;;;;;;;12.82;56.54;95495.50;5016302;28;21298;-70
2023/10/17 10:56:09;;;;;;;6.03;2.70;;;;;;;12.82;56.13;95490.22;5012999;28;20233;-69
2023/10/17 10:58:51;;;;;;;9.20;2.83;;;;;;;12.88;56.59;95496.50;5045086;28;20229;-70
2023/10/17 11:01:18;;;;;;;6.37;2.37;;;;;;;12.84;56.67;95485.59;5014673;28;20228;-69
2023/10/17 11:03:46;;;;;;;12.73;2.40;;;;;;;12.90;56.01;95478.72;5045430;28;20236;-69
2023/10/17 11:06:13;;;;;;;6.87;2.60;;;;;;;12.95;56.08;95473.66;5031047;28;20241;-69
2023/10/17 11:08:43;;;;;;;11.63;2.87;;;;;;;12.95;56.51;95479.72;5045983;28;20232;-69
2023/10/17 11:11:10;;;;;;;5.03;2.50;;;;;;;13.02;56.66;95471.84;5010595;28;20233;-70
2023/10/17 11:13:42;;;;;;;4.17;2.60;;;;;;;12.93;55.76;95471.25;5010889;28;20237;-70
2023/10/17 11:16:08;;;;;;;5.17;2.60;;;;;;;12.87;55.88;95464.19;5020138;28;21042;-70
2023/10/17 11:18:43;;;;;;;5.77;2.60;;;;;;;12.92;56.43;95460.94;5020156;28;20242;-70
2023/10/17 11:21:08;;;;;;;6.93;2.90;;;;;;;12.98;56.56;95452.25;5035126;28;20686;-69
2023/10/17 11:23:35;;;;;;;7.37;2.70;;;;;;;13.05;56.83;95448.63;5016239;28;20225;-69
2023/10/17 11:26:01;;;;;;;10.13;2.60;;;;;;;12.97;56.30;95440.91;5013248;28;20229;-69
2023/10/17 11:28:27;;;;;;;8.47;2.50;;;;;;;12.93;55.71;95444.97;5015721;28;20237;-69
2023/10/17 11:30:52;;;;;;;9.93;2.60;;;;;;;12.98;55.79;95431.22;5025059;28;20731;-70
2023/10/17 11:33:18;;;;;;;11.17;3.10;;;;;;;13.02;56.20;95424.56;5030795;28;20231;-70
2023/10/17 11:35:50;;;;;;;9.73;2.53;;;;;;;12.92;55.51;95430.19;5015681;28;20307;-70
2023/10/17 11:38:38;;;;;;;8.93;2.80;;;;;;;12.89;55.52;95422.75;5029308;28;20221;-70
2023/10/17 11:41:09;;;;;;;7.40;2.50;;;;;;;12.97;55.92;95421.75;4998497;28;20269;-69
2023/10/17 11:43:51;;;;;;;5.43;2.70;;;;;;;12.95;56.16;95416.66;5046724;28;20244;-69
2023/10/17 11:46:32;;;;;;;7.63;2.70;;;;;;;12.88;56.38;95423.75;5003909;28;20975;-69
2023/10/17 11:49:20;;;;;;;5.57;2.80;;;;;;;12.94;56.61;95411.63;5009545;28;20280;-69
2023/10/17 11:51:51;;;;;;;14.57;5.47;;;;;;;12.86;57.09;95402.13;5027583;28;20237;-69
2023/10/17 11:54:18;;;;;;;17.73;3.30;;;;;;;12.86;56.60;95399.50;5046231;28;20280;-69
2023/10/17 11:56:45;;;;;;;14.57;2.83;;;;;;;12.83;56.33;95392.81;5009016;28;20225;-70
2023/10/17 11:59:17;;;;;;;7.20;2.80;;;;;;;12.84;56.78;95398.91;5012738;28;20217;-69
2023/10/17 12:01:45;;;;;;;8.07;2.63;;;;;;;12.87;57.22;95402.94;5009906;28;20237;-68
2023/10/17 12:04:11;;;;;;;6.17;2.63;;;;;;;12.84;56.83;95401.53;5017546;28;20465;-69
2023/10/17 12:06:39;;;;;;;7.57;2.70;;;;;;;12.87;58.01;95405.56;5011926;28;20733;-68
2023/10/17 12:09:23;;;;;;;6.33;2.70;;;;;;;12.90;57.49;95402.53;5013258;28;20229;-69
2023/10/17 12:11:53;;;;;;;5.70;2.80;;;;;;;12.88;57.96;95405.34;5031530;28;20352;-69
2023/10/17 12:14:23;;;;;;;5.33;2.43;;;;;;;12.85;58.22;95401.31;5013566;28;20236;-69
2023/10/17 12:16:53;;;;;;;4.40;2.60;;;;;;;12.85;58.36;95392.59;5030524;28;20264;-70
2023/10/17 12:19:19;;;;;;;9.07;2.93;;;;;;;12.89;59.42;95401.72;5010652;28;20228;-70
2023/10/17 12:21:48;;;;;;;9.50;3.23;;;;;;;12.92;58.46;95393.41;5028984;28;20702;-69
2023/10/17 12:24:19;;;;;;;6.97;3.00;;;;;;;12.91;58.16;95394.44;5011424;28;21122;-69
2023/10/17 12:26:46;;;;;;;9.17;3.20;;;;;;;12.91;58.45;95388.38;5014104;28;20271;-69
2023/10/17 12:29:12;;;;;;;11.50;2.87;;;;;;;12.86;58.76;95386.38;5013701;28;20237;-69
2023/10/17 12:31:39;;;;;;;4.77;2.90;;;;;;;12.87;58.39;95390.63;5009603;28;20244;-69
2023/10/17 12:34:07;;;;;;;4.50;2.90;;;;;;;12.90;58.49;95392.03;5026742;28;20236;-69
2023/10/17 12:36:36;;;;;;;8.53;3.10;;;;;;;12.90;58.09;95390.19;5011483;28;20229;-70
2023/10/17 12:39:08;;;;;;;7.33;2.90;;;;;;;12.89;58.92;95388.59;5014014;28;20707;-69
2023/10/17 12:41:35;;;;;;;10.83;3.73;;;;;;;12.88;58.88;95391.41;5037670;28;20232;-70
2023/10/17 12:44:00;;;;;;;12.53;3.30;;;;;;;12.81;58.67;95391.41;4995709;28;21015;-69
2023/10/17 12:46:26;;;;;;;15.73;3.50;;;;;;;12.86;59.22;95394.25;5026668;28;20233;-69
2023/10/17 12:48:52;;;;;;;9.40;3.30;;;;;;;12.79;59.49;95389.00;5044269;28;20241;-69
2023/10/17 12:51:20;;;;;;;8.93;3.50;;;;;;;12.75;59.91;95386.97;5028140;28;20275;-69
2023/10/17 12:53:46;;;;;;;7.57;3.20;;;;;;;12.77;59.56;95388.38;5012169;28;20262;-69
2023/10/17 12:56:12;;;;;;;4.60;2.87;;;;;;;12.80;60.03;95389.81;5009808;28;20230;-69
2023/10/17 12:58:37;;;;;;;5.43;3.07;;;;;;;12.76;60.71;95389.38;5009286;28;20225;-69
2023/10/17 13:01:06;;;;;;;7.20;3.10;;;;;;;12.78;61.59;95391.81;5048120;28;20228;-69
2023/10/17 13:03:37;;;;;;;6.93;2.93;;;;;;;12.76;61.04;95393.81;5022912;28;20229;-69
2023/10/17 13:06:04;;;;;;;9.23;3.10;;;;;;;12.74;61.21;95393.22;5033737;28;20232;-69
2023/10/17 13:08:31;;;;;;;6.13;3.10;;;;;;;12.70;61.84;95390.19;4996681;28;20387;-69
2023/10/17 13:10:57;;;;;;;6.70;2.90;;;;;;;12.63;62.36;95385.94;5009748;28;20228;-69
2023/10/17 13:13:23;;;;;;;8.63;3.07;;;;;;;12.67;62.58;95387.16;5027678;28;20291;-70
2023/10/17 13:15:49;;;;;;;6.63;3.07;;;;;;;12.63;63.50;95386.72;5010571;28;20230;-70
2023/10/17 13:18:15;;;;;;;8.33;3.20;;;;;;;12.56;64.21;95379.88;5012418;28;20240;-70
2023/10/17 13:20:50;;;;;;;12.43;4.30;;;;;;;12.63;65.97;95383.31;5013890;28;20229;-70
2023/10/17 13:23:19;;;;;;;8.87;4.70;;;;;;;12.57;65.72;95382.28;5045675;28;20221;-69
2023/10/17 13:25:44;;;;;;;6.63;3.20;;;;;;;12.44;65.54;95376.22;5009727;28;20858;-69
2023/10/17 13:28:10;;;;;;;4.73;3.00;;;;;;;12.46;66.28;95382.09;5025910;28;20226;-69
2023/10/17 13:30:36;;;;;;;6.63;3.00;;;;;;;12.45;67.00;95383.88;4991797;28;20835;-70
2023/10/17 13:33:02;;;;;;;5.93;3.00;;;;;;;12.41;66.69;95390.56;5024832;28;20309;-70
2023/10/17 13:35:28;;;;;;;7.20;3.20;;;;;;;12.28;67.61;95389.69;5044192;28;20238;-69
2023/10/17 13:37:55;;;;;;;4.27;2.70;;;;;;;12.26;67.48;95386.47;5030474;28;20233;-69
2023/10/17 13:40:23;;;;;;;6.60;3.53;;;;;;;12.16;68.01;95390.28;4989227;28;20267;-69
2023/10/17 13:42:55;;;;;;;9.93;4.53;;;;;;;12.14;67.69;95384.44;5018935;28;20225;-69
2023/10/17 13:45:21;;;;;;;7.07;3.30;;;;;;;12.18;68.33;95382.19;5023638;28;20234;-69
2023/10/17 13:47:48;;;;;;;5.03;3.10;;;;;;;12.18;68.47;95384.81;5031779;28;20253;-70
2023/10/17 13:50:15;;;;;;;5.63;3.20;;;;;;;12.22;68.13;95378.19;5032256;28;20234;-69
2023/10/17 13:52:41;;;;;;;6.53;3.20;;;;;;;12.22;67.94;95380.00;5027981;28;20321;-68
2023/10/17 13:55:09;;;;;;;6.97;3.10;;;;;;;12.25;67.58;95380.44;5011824;28;20226;-69